createdAt,value
2018-07-21T00:02:08.977Z,10.38
2018-07-21T00:04:37.058Z,11.08
2018-07-21T00:07:05.148Z,10.05
2018-07-21T00:09:33.154Z,9.65
2018-07-21T00:12:01.120Z,10.43
2018-07-21T00:14:29.227Z,10.82
2018-07-21T00:16:57.245Z,9.15
2018-07-21T00:19:25.532Z,9.50
2018-07-21T00:21:53.515Z,9.43
2018-07-21T00:24:21.455Z,9.00
2018-07-21T00:26:49.781Z,9.20
2018-07-21T00:29:19.333Z,9.63
2018-07-21T00:31:47.386Z,7.78
2018-07-21T00:34:15.353Z,9.85
2018-07-21T00:36:43.436Z,9.63
2018-07-21T00:39:14.201Z,10.50
2018-07-21T00:41:42.324Z,8.60
2018-07-21T00:44:10.413Z,8.93
2018-07-21T00:46:38.429Z,9.63
2018-07-21T00:49:06.843Z,8.35
2018-07-21T00:51:35.082Z,10.53
2018-07-21T00:54:03.013Z,9.75
2018-07-21T00:56:31.642Z,7.78
2018-07-21T00:58:59.536Z,8.70
2018-07-21T01:01:27.461Z,8.35
2018-07-21T01:03:55.585Z,8.80
2018-07-21T01:06:23.619Z,8.35
2018-07-21T01:08:51.639Z,7.65
2018-07-21T01:11:19.636Z,7.75
2018-07-21T01:13:47.751Z,8.23
2018-07-21T01:16:15.824Z,5.75
2018-07-21T01:18:43.973Z,8.05
2018-07-21T01:21:12.343Z,7.87
2018-07-21T01:23:40.438Z,8.65
2018-07-21T01:26:08.425Z,6.33
2018-07-21T01:28:36.465Z,6.50
2018-07-21T01:31:04.429Z,5.72
2018-07-21T01:33:32.453Z,8.00
2018-07-21T01:36:00.345Z,6.92
2018-07-21T01:38:28.326Z,8.23
2018-07-21T01:40:56.356Z,7.83
2018-07-21T01:43:24.409Z,8.23
2018-07-21T01:45:52.490Z,7.85
2018-07-21T01:48:20.499Z,7.83
2018-07-21T01:50:48.532Z,7.22
2018-07-21T01:53:16.751Z,6.58
2018-07-21T01:55:44.729Z,6.40
2018-07-21T01:58:12.707Z,7.08
2018-07-21T02:00:40.840Z,7.05
2018-07-21T02:03:08.788Z,6.87
2018-07-21T02:05:36.802Z,6.25
2018-07-21T02:08:04.987Z,6.28
2018-07-21T02:10:32.941Z,6.22
2018-07-21T02:13:01.032Z,7.92
2018-07-21T02:15:29.014Z,6.85
2018-07-21T02:17:57.066Z,6.30
2018-07-21T02:20:25.112Z,8.65
2018-07-21T02:22:53.137Z,6.10
2018-07-21T02:25:21.150Z,5.45
2018-07-21T02:27:49.176Z,9.13
2018-07-21T02:30:17.236Z,8.38
2018-07-21T02:32:45.399Z,7.22
2018-07-21T02:35:13.349Z,7.12
2018-07-21T02:37:41.353Z,7.42
2018-07-21T02:40:09.414Z,7.55
2018-07-21T02:42:37.353Z,7.78
2018-07-21T02:45:05.330Z,7.70
2018-07-21T02:47:33.530Z,7.45
2018-07-21T02:50:01.553Z,7.47
2018-07-21T02:52:29.468Z,6.83
2018-07-21T02:54:57.427Z,6.87
2018-07-21T02:57:25.453Z,8.18
2018-07-21T02:59:53.472Z,5.60
2018-07-21T03:02:21.461Z,6.33
2018-07-21T03:04:49.494Z,6.65
2018-07-21T03:07:17.580Z,5.72
2018-07-21T03:09:45.758Z,7.87
2018-07-21T03:12:13.750Z,6.55
2018-07-21T03:14:41.831Z,10.32
2018-07-21T03:17:09.881Z,5.92
2018-07-21T03:19:37.929Z,5.90
2018-07-21T03:22:05.944Z,7.28
2018-07-21T03:24:33.896Z,7.22
2018-07-21T03:27:01.985Z,8.68
2018-07-21T03:29:30.036Z,7.30
2018-07-21T03:31:58.097Z,7.45
2018-07-21T03:34:26.059Z,8.28
2018-07-21T03:36:54.160Z,7.80
2018-07-21T03:39:22.133Z,6.60
2018-07-21T03:41:50.736Z,7.12
2018-07-21T03:44:18.756Z,7.50
2018-07-21T03:46:46.870Z,7.83
2018-07-21T03:49:15.070Z,7.78
2018-07-21T03:51:43.058Z,8.25
2018-07-21T03:54:11.037Z,6.40
2018-07-21T03:56:39.112Z,10.55
2018-07-21T03:59:07.030Z,6.87
2018-07-21T04:01:35.015Z,7.20
2018-07-21T04:04:03.015Z,7.20
2018-07-21T04:06:31.324Z,7.05
2018-07-21T04:08:59.420Z,7.83
2018-07-21T04:11:27.568Z,9.83
2018-07-21T04:13:55.639Z,8.28
2018-07-21T04:16:23.761Z,8.08
2018-07-21T04:18:51.706Z,7.78
2018-07-21T04:21:19.817Z,8.28
2018-07-21T04:23:48.067Z,6.87
2018-07-21T04:26:16.040Z,7.85
2018-07-21T04:28:44.131Z,7.25
2018-07-21T04:31:12.184Z,6.85
2018-07-21T04:33:40.152Z,8.25
2018-07-21T04:36:08.119Z,6.58
2018-07-21T04:38:36.184Z,6.78
2018-07-21T04:41:04.297Z,6.78
2018-07-21T04:43:32.274Z,8.00
2018-07-21T04:46:00.321Z,8.33
2018-07-21T04:48:29.785Z,8.85
2018-07-21T04:50:58.032Z,7.62
2018-07-21T04:53:26.063Z,7.33
2018-07-21T04:55:54.109Z,9.05
2018-07-21T04:58:22.145Z,8.63
2018-07-21T05:00:50.206Z,7.92
2018-07-21T05:03:18.182Z,10.43
2018-07-21T05:05:46.241Z,8.03
2018-07-21T05:08:14.186Z,9.68
2018-07-21T05:10:42.182Z,8.70
2018-07-21T05:13:10.264Z,8.13
2018-07-21T05:15:38.184Z,9.53
2018-07-21T05:18:05.915Z,7.95
2018-07-21T05:20:33.975Z,6.95
2018-07-21T05:23:02.222Z,6.58
2018-07-21T05:25:30.250Z,7.67
2018-07-21T05:27:58.275Z,6.75
2018-07-21T05:30:26.280Z,9.85
2018-07-21T05:32:54.277Z,6.62
2018-07-21T05:35:22.456Z,8.00
2018-07-21T05:37:51.661Z,9.38
2018-07-21T05:40:19.847Z,7.45
2018-07-21T05:42:48.046Z,8.08
2018-07-21T05:45:16.035Z,7.90
2018-07-21T05:47:44.192Z,9.68
2018-07-21T05:50:12.324Z,10.13
2018-07-21T05:52:42.802Z,7.00
2018-07-21T05:55:10.818Z,7.33
2018-07-21T05:57:38.849Z,7.78
2018-07-21T06:00:10.129Z,7.72
2018-07-21T06:02:38.245Z,8.30
2018-07-21T06:05:06.426Z,7.95
2018-07-21T06:07:34.560Z,8.00
2018-07-21T06:10:02.595Z,8.45
2018-07-21T06:12:30.536Z,8.60
2018-07-21T06:14:58.531Z,7.50
2018-07-21T06:17:26.546Z,8.88
2018-07-21T06:19:54.695Z,7.55
2018-07-21T06:22:22.735Z,6.40
2018-07-21T06:24:50.691Z,8.53
2018-07-21T06:27:18.643Z,9.55
2018-07-21T06:29:46.689Z,7.47
2018-07-21T06:32:14.814Z,6.55
2018-07-21T06:34:42.904Z,8.40
2018-07-21T06:37:10.885Z,7.58
2018-07-21T06:39:38.919Z,8.33
2018-07-21T06:42:06.977Z,9.88
2018-07-21T06:44:34.953Z,10.25
2018-07-21T06:47:06.759Z,7.87
2018-07-21T06:49:34.780Z,6.72
2018-07-21T06:52:02.907Z,10.95
2018-07-21T06:54:30.876Z,6.62
2018-07-21T06:57:03.494Z,10.10
2018-07-21T06:59:31.550Z,6.78
2018-07-21T07:01:59.594Z,8.00
2018-07-21T07:04:27.658Z,10.50
2018-07-21T07:06:56.684Z,9.00
2018-07-21T07:09:24.934Z,8.65
2018-07-21T07:11:53.007Z,5.72
2018-07-21T07:14:21.921Z,7.40
2018-07-21T07:16:49.889Z,8.08
2018-07-21T07:19:17.919Z,9.15
2018-07-21T07:21:45.996Z,8.28
2018-07-21T07:24:13.956Z,7.33
2018-07-21T07:26:42.061Z,7.53
2018-07-21T07:29:10.448Z,7.35
2018-07-21T07:31:38.522Z,7.42
2018-07-21T07:34:06.662Z,8.03
2018-07-21T07:36:34.901Z,6.47
2018-07-21T07:39:03.244Z,7.58
2018-07-21T07:41:31.195Z,8.75
2018-07-21T07:43:59.150Z,9.43
2018-07-21T07:46:27.142Z,6.83
2018-07-21T07:48:55.104Z,7.90
2018-07-21T07:51:23.192Z,7.05
2018-07-21T07:53:51.673Z,7.28
2018-07-21T07:56:22.872Z,6.87
2018-07-21T07:58:50.798Z,7.12
2018-07-21T08:01:19.169Z,7.00
2018-07-21T08:03:47.164Z,7.55
2018-07-21T08:06:15.277Z,6.10
2018-07-21T08:08:44.304Z,8.08
2018-07-21T08:11:12.305Z,8.53
2018-07-21T08:13:40.345Z,8.80
2018-07-21T08:16:08.279Z,7.58
2018-07-21T08:18:36.517Z,8.90
2018-07-21T08:21:04.520Z,6.95
2018-07-21T08:23:32.602Z,7.78
2018-07-21T08:26:00.646Z,8.23
2018-07-21T08:28:28.762Z,7.33
2018-07-21T08:30:57.011Z,8.10
2018-07-21T08:33:24.986Z,8.25
2018-07-21T08:35:53.025Z,7.37
2018-07-21T08:38:21.305Z,8.48
2018-07-21T08:40:49.369Z,7.33
2018-07-21T08:43:17.406Z,7.15
2018-07-21T08:45:45.417Z,7.40
2018-07-21T08:48:13.561Z,7.30
2018-07-21T08:50:41.653Z,9.18
2018-07-21T08:53:09.719Z,9.05
2018-07-21T08:55:37.949Z,6.75
2018-07-21T08:58:06.032Z,5.10
2018-07-21T09:00:34.074Z,9.10
2018-07-21T09:03:02.131Z,8.58
2018-07-21T09:05:30.296Z,5.67
2018-07-21T09:07:58.401Z,6.70
2018-07-21T09:10:26.459Z,7.37
2018-07-21T09:12:54.634Z,6.10
2018-07-21T09:15:22.763Z,8.08
2018-07-21T09:17:51.010Z,6.45
2018-07-21T09:20:19.102Z,7.62
2018-07-21T09:22:47.161Z,7.17
2018-07-21T09:25:15.315Z,7.33
2018-07-21T09:27:43.360Z,7.58
2018-07-21T09:30:11.354Z,7.28
2018-07-21T09:32:39.344Z,8.83
2018-07-21T09:35:07.403Z,7.75
2018-07-21T09:37:35.420Z,8.48
2018-07-21T09:40:03.740Z,8.73
2018-07-21T09:42:31.774Z,7.67
2018-07-21T09:44:59.823Z,6.83
2018-07-21T09:47:27.783Z,6.22
2018-07-21T09:49:56.486Z,6.47
2018-07-21T09:52:24.518Z,8.08
2018-07-21T09:54:52.623Z,8.70
2018-07-21T09:57:20.624Z,10.60
2018-07-21T09:59:48.698Z,8.18
2018-07-21T10:02:17.480Z,5.95
2018-07-21T10:04:45.778Z,5.95
2018-07-21T10:07:14.838Z,5.22
2018-07-21T10:09:44.245Z,5.55
2018-07-21T10:12:13.474Z,5.85
2018-07-21T10:14:41.781Z,5.65
2018-07-21T10:17:10.433Z,6.33
2018-07-21T10:19:39.265Z,6.33
2018-07-21T10:22:10.085Z,5.60
2018-07-21T10:24:43.777Z,5.30
2018-07-21T10:27:14.383Z,5.95
2018-07-21T10:29:42.523Z,7.00
2018-07-21T10:32:10.959Z,6.03
2018-07-21T10:34:39.994Z,5.08
2018-07-21T10:37:08.482Z,4.87
2018-07-21T10:39:37.186Z,4.80
2018-07-21T10:42:05.520Z,7.45
2018-07-21T10:44:33.660Z,6.25
2018-07-21T10:47:01.709Z,7.75
2018-07-21T10:49:30.238Z,5.90
2018-07-21T10:51:59.025Z,7.08
2018-07-21T10:54:27.534Z,5.92
2018-07-21T10:56:56.494Z,4.53
2018-07-21T10:59:24.533Z,4.05
2018-07-21T11:01:53.014Z,5.92
2018-07-21T11:04:21.103Z,6.40
2018-07-21T11:06:49.993Z,5.28
2018-07-21T11:09:19.195Z,3.95
2018-07-21T11:11:47.212Z,3.77
2018-07-21T11:14:15.312Z,4.92
2018-07-21T11:16:45.705Z,7.30
2018-07-21T11:19:14.791Z,6.20
2018-07-21T11:21:42.797Z,4.15
2018-07-21T11:24:10.889Z,5.90
2018-07-21T11:26:40.225Z,4.95
2018-07-21T11:29:08.412Z,6.47
2018-07-21T11:31:39.330Z,7.08
2018-07-21T11:34:07.430Z,6.78
2018-07-21T11:36:35.546Z,4.83
2018-07-21T11:39:04.333Z,7.17
2018-07-21T11:41:32.956Z,6.00
2018-07-21T11:44:01.465Z,4.00
2018-07-21T11:46:30.276Z,4.83
2018-07-21T11:48:59.852Z,4.55
2018-07-21T11:51:27.926Z,4.70
2018-07-21T11:53:56.088Z,7.12
2018-07-21T11:56:24.287Z,5.03
2018-07-21T11:58:52.345Z,5.15
2018-07-21T12:01:20.824Z,5.60
2018-07-21T12:03:49.331Z,5.97
2018-07-21T12:06:17.871Z,5.45
2018-07-21T12:08:45.896Z,6.03
2018-07-21T12:11:14.663Z,5.40
2018-07-21T12:13:43.237Z,5.42
2018-07-21T12:16:11.657Z,5.75
2018-07-21T12:18:39.700Z,5.00
2018-07-21T12:21:07.718Z,7.00
2018-07-21T12:23:35.884Z,6.05
2018-07-21T12:26:04.016Z,4.75
2018-07-21T12:28:32.228Z,6.35
2018-07-21T12:31:00.317Z,4.70
2018-07-21T12:33:28.324Z,7.65
2018-07-21T12:35:56.370Z,6.47
2018-07-21T12:38:24.688Z,6.70
2018-07-21T12:40:52.838Z,5.92
2018-07-21T12:43:20.807Z,7.85
2018-07-21T12:45:49.512Z,5.15
2018-07-21T12:48:17.718Z,6.10
2018-07-21T12:50:46.098Z,6.37
2018-07-21T12:53:14.112Z,4.62
2018-07-21T12:55:42.306Z,6.47
2018-07-21T12:58:10.703Z,5.50
2018-07-21T13:00:38.718Z,5.40
2018-07-21T13:03:06.992Z,5.87
2018-07-21T13:05:35.098Z,6.67
2018-07-21T13:08:03.163Z,6.53
2018-07-21T13:10:31.511Z,6.95
2018-07-21T13:12:59.521Z,5.87
2018-07-21T13:15:27.642Z,7.97
2018-07-21T13:17:56.380Z,4.83
2018-07-21T13:20:24.370Z,6.58
2018-07-21T13:22:52.518Z,5.22
2018-07-21T13:25:21.906Z,5.65
2018-07-21T13:27:49.959Z,5.67
2018-07-21T13:30:17.991Z,6.03
2018-07-21T13:32:46.818Z,6.62
2018-07-21T13:35:15.030Z,6.53
2018-07-21T13:37:43.325Z,6.20
2018-07-21T13:40:12.663Z,5.47
2018-07-21T13:42:42.421Z,6.35
2018-07-21T13:45:10.563Z,6.65
2018-07-21T13:47:38.962Z,5.97
2018-07-21T13:50:07.013Z,6.78
2018-07-21T13:52:35.800Z,5.33
2018-07-21T13:55:04.123Z,7.00
2018-07-21T13:57:32.474Z,6.17
2018-07-21T14:00:00.777Z,6.28
2018-07-21T14:02:28.787Z,6.53
2018-07-21T14:04:56.871Z,7.33
2018-07-21T14:07:24.891Z,6.67
2018-07-21T14:09:53.564Z,6.33
2018-07-21T14:12:22.291Z,5.85
2018-07-21T14:14:50.346Z,6.70
2018-07-21T14:17:19.556Z,7.05
2018-07-21T14:19:47.543Z,6.30
2018-07-21T14:22:15.995Z,4.62
2018-07-21T14:24:44.136Z,4.97
2018-07-21T14:27:12.211Z,5.62
2018-07-21T14:29:40.406Z,5.70
2018-07-21T14:32:08.361Z,5.42
2018-07-21T14:34:36.537Z,6.08
2018-07-21T14:37:05.019Z,5.28
2018-07-21T14:39:33.169Z,7.10
2018-07-21T14:42:01.247Z,4.92
2018-07-21T14:44:29.372Z,5.45
2018-07-21T14:46:57.368Z,5.78
2018-07-21T14:49:25.384Z,6.97
2018-07-21T14:51:53.570Z,6.62
2018-07-21T14:54:21.812Z,6.50
2018-07-21T14:56:49.899Z,5.55
2018-07-21T14:59:17.928Z,7.08
2018-07-21T15:01:46.401Z,6.55
2018-07-21T15:04:14.399Z,6.50
2018-07-21T15:06:42.569Z,6.53
2018-07-21T15:09:11.784Z,5.72
2018-07-21T15:11:40.017Z,6.53
2018-07-21T15:14:08.292Z,6.70
2018-07-21T15:16:38.391Z,6.15
2018-07-21T15:19:07.415Z,4.80
2018-07-21T15:21:35.543Z,6.35
2018-07-21T15:24:04.207Z,5.37
2018-07-21T15:26:33.943Z,5.75
2018-07-21T15:29:02.254Z,5.62
2018-07-21T15:31:31.073Z,4.40
2018-07-21T15:33:59.333Z,6.87
2018-07-21T15:36:27.353Z,5.75
2018-07-21T15:38:56.063Z,5.60
2018-07-21T15:41:24.163Z,6.75
2018-07-21T15:43:52.866Z,5.28
2018-07-21T15:46:21.139Z,5.50
2018-07-21T15:48:49.973Z,6.65
2018-07-21T15:51:18.093Z,7.15
2018-07-21T15:53:46.416Z,6.58
2018-07-21T15:56:15.549Z,6.55
2018-07-21T15:58:43.666Z,7.85
2018-07-21T16:01:13.247Z,7.45
2018-07-21T16:03:41.391Z,5.47
2018-07-21T16:06:09.603Z,7.62
2018-07-21T16:08:38.519Z,6.03
2018-07-21T16:11:07.448Z,9.05
2018-07-21T16:13:36.421Z,7.80
2018-07-21T16:16:04.951Z,6.22
2018-07-21T16:18:34.224Z,6.50
2018-07-21T16:21:03.563Z,5.35
2018-07-21T16:23:31.735Z,5.30
2018-07-21T16:25:59.994Z,5.40
2018-07-21T16:28:28.153Z,8.15
2018-07-21T16:30:56.206Z,6.90
2018-07-21T16:33:24.439Z,6.05
2018-07-21T16:35:52.921Z,7.67
2018-07-21T16:38:21.058Z,7.65
2018-07-21T16:40:49.255Z,6.78
2018-07-21T16:43:18.121Z,7.72
2018-07-21T16:45:46.216Z,8.78
2018-07-21T16:48:17.814Z,7.20
2018-07-21T16:50:46.422Z,6.20
2018-07-21T16:53:14.750Z,8.35
2018-07-21T16:55:42.851Z,7.47
2018-07-21T16:58:11.389Z,6.90
2018-07-21T17:00:39.941Z,8.58
2018-07-21T17:03:08.193Z,7.70
2018-07-21T17:05:36.287Z,7.50
2018-07-21T17:08:04.605Z,7.55
2018-07-21T17:10:33.304Z,6.65
2018-07-21T17:13:01.279Z,7.03
2018-07-21T17:15:29.380Z,7.10
2018-07-21T17:17:57.355Z,9.73
2018-07-21T17:20:25.532Z,8.28
2018-07-21T17:22:53.506Z,7.42
2018-07-21T17:25:21.567Z,6.90
2018-07-21T17:27:49.664Z,7.70
2018-07-21T17:30:17.632Z,6.78
2018-07-21T17:32:45.709Z,8.55
2018-07-21T17:35:14.931Z,7.33
2018-07-21T17:37:42.974Z,8.73
2018-07-21T17:40:10.995Z,9.83
2018-07-21T17:42:39.109Z,8.60
2018-07-21T17:45:07.477Z,9.05
2018-07-21T17:47:35.679Z,10.78
2018-07-21T17:50:03.798Z,10.43
2018-07-21T17:52:32.383Z,9.68
2018-07-21T17:55:00.466Z,8.35
2018-07-21T17:57:28.426Z,9.60
2018-07-21T17:59:56.443Z,10.32
2018-07-21T18:02:24.516Z,9.08
2018-07-21T18:04:52.521Z,8.03
2018-07-21T18:07:20.652Z,9.98
2018-07-21T18:09:48.712Z,9.70
2018-07-21T18:12:16.778Z,9.13
2018-07-21T18:14:44.768Z,9.25
2018-07-21T18:17:12.765Z,9.60
2018-07-21T18:19:40.703Z,9.00
2018-07-21T18:22:08.774Z,9.03
2018-07-21T18:24:36.820Z,8.13
2018-07-21T18:27:04.867Z,8.90
2018-07-21T18:29:32.958Z,10.68
2018-07-21T18:32:00.986Z,11.03
2018-07-21T18:34:29.009Z,7.65
2018-07-21T18:36:58.230Z,10.23
2018-07-21T18:39:26.261Z,11.08
2018-07-21T18:41:54.278Z,9.60
2018-07-21T18:44:22.263Z,8.70
2018-07-21T18:46:50.288Z,10.53
2018-07-21T18:49:18.742Z,9.68
2018-07-21T18:51:46.875Z,8.53
2018-07-21T18:54:14.929Z,9.18
2018-07-21T18:56:44.058Z,9.10
2018-07-21T18:59:12.167Z,9.38
2018-07-21T19:01:40.252Z,10.08
2018-07-21T19:04:08.221Z,9.03
2018-07-21T19:06:36.299Z,10.85
2018-07-21T19:09:07.369Z,10.85
2018-07-21T19:11:35.328Z,10.08
2018-07-21T19:14:03.577Z,10.70
2018-07-21T19:16:40.121Z,11.00
2018-07-21T19:19:08.285Z,11.63
2018-07-21T19:21:36.313Z,9.68
2018-07-21T19:24:04.550Z,13.05
2018-07-21T19:26:38.122Z,11.12
2018-07-21T19:29:06.194Z,9.60
2018-07-21T19:31:34.089Z,11.33
2018-07-21T19:34:02.202Z,9.83
2018-07-21T19:36:30.175Z,9.95
2018-07-21T19:38:58.276Z,9.78
2018-07-21T19:41:31.604Z,9.85
2018-07-21T19:43:59.661Z,10.05
2018-07-21T19:46:27.679Z,9.08
2018-07-21T19:48:55.681Z,10.65
2018-07-21T19:51:23.692Z,11.18
2018-07-21T19:53:51.786Z,10.55
2018-07-21T19:56:19.827Z,10.20
2018-07-21T19:58:47.790Z,11.40
2018-07-21T20:01:15.832Z,10.60
2018-07-21T20:03:43.899Z,10.60
2018-07-21T20:06:11.923Z,9.80
2018-07-21T20:08:40.092Z,10.90
2018-07-21T20:11:08.301Z,10.63
2018-07-21T20:13:36.251Z,11.95
2018-07-21T20:16:04.296Z,11.22
2018-07-21T20:18:32.232Z,11.30
2018-07-21T20:21:00.470Z,10.63
2018-07-21T20:23:28.364Z,10.98
2018-07-21T20:25:56.411Z,10.38
2018-07-21T20:28:24.376Z,10.23
2018-07-21T20:30:52.650Z,11.60
2018-07-21T20:33:20.740Z,11.75
2018-07-21T20:35:48.722Z,12.25
2018-07-21T20:38:16.826Z,12.73
2018-07-21T20:40:44.929Z,14.30
2018-07-21T20:43:13.031Z,10.90
2018-07-21T20:45:41.099Z,12.70
2018-07-21T20:48:09.426Z,10.18
2018-07-21T20:50:37.392Z,9.90
2018-07-21T20:53:05.562Z,11.97
2018-07-21T20:55:33.588Z,9.85
2018-07-21T20:58:02.243Z,12.07
2018-07-21T21:00:31.297Z,11.33
2018-07-21T21:02:59.520Z,12.65
2018-07-21T21:05:27.601Z,12.37
2018-07-21T21:07:55.758Z,11.43
2018-07-21T21:10:23.935Z,10.13
2018-07-21T21:12:52.635Z,11.33
2018-07-21T21:15:21.175Z,10.10
2018-07-21T21:17:49.509Z,12.73
2018-07-21T21:20:18.231Z,10.60
2018-07-21T21:22:48.268Z,11.57
2018-07-21T21:25:17.392Z,10.78
2018-07-21T21:27:46.552Z,11.15
2018-07-21T21:30:15.716Z,14.40
2018-07-21T21:32:44.527Z,12.35
2018-07-21T21:35:13.888Z,11.22
2018-07-21T21:37:42.674Z,11.70
2018-07-21T21:40:11.498Z,9.58
2018-07-21T21:42:39.635Z,11.95
2018-07-21T21:45:07.594Z,10.58
2018-07-21T21:47:35.606Z,10.08
2018-07-21T21:50:03.837Z,11.48
2018-07-21T21:52:32.007Z,12.37
2018-07-21T21:55:00.075Z,12.45
2018-07-21T21:57:28.187Z,12.28
2018-07-21T21:59:56.250Z,13.68
2018-07-21T22:02:24.294Z,12.40
2018-07-21T22:04:52.397Z,12.65
2018-07-21T22:07:20.467Z,11.90
2018-07-21T22:09:48.475Z,13.62
2018-07-21T22:12:16.373Z,11.90
2018-07-21T22:14:44.732Z,11.05
2018-07-21T22:17:13.738Z,11.93
2018-07-21T22:19:41.772Z,12.55
2018-07-21T22:22:09.814Z,9.48
2018-07-21T22:24:37.962Z,10.60
2018-07-21T22:27:06.179Z,10.58
2018-07-21T22:29:34.156Z,10.72
2018-07-21T22:32:02.208Z,11.60
2018-07-21T22:34:30.298Z,9.93
2018-07-21T22:36:58.390Z,11.03
2018-07-21T22:39:26.634Z,11.08
2018-07-21T22:41:54.686Z,11.88
2018-07-21T22:44:22.674Z,11.83
2018-07-21T22:46:50.692Z,12.60
2018-07-21T22:49:18.708Z,11.95
2018-07-21T22:51:46.686Z,9.95
2018-07-21T22:54:14.642Z,10.45
2018-07-21T22:56:42.672Z,12.53
2018-07-21T22:59:10.725Z,8.93
2018-07-21T23:01:39.256Z,10.53
2018-07-21T23:04:07.399Z,11.05
2018-07-21T23:06:35.361Z,12.43
2018-07-21T23:09:03.901Z,9.63
2018-07-21T23:11:32.031Z,11.70
2018-07-21T23:14:00.043Z,12.33
2018-07-21T23:16:28.015Z,11.80
2018-07-21T23:18:56.036Z,11.68
2018-07-21T23:21:24.032Z,10.08
2018-07-21T23:23:52.170Z,10.63
2018-07-21T23:26:20.208Z,9.08
2018-07-21T23:28:48.304Z,11.00
2018-07-21T23:31:16.290Z,8.13
2018-07-21T23:33:44.228Z,8.43
2018-07-21T23:36:12.199Z,10.43
2018-07-21T23:38:40.147Z,10.25
2018-07-21T23:41:08.163Z,9.55
2018-07-21T23:43:36.196Z,11.80
2018-07-21T23:46:04.317Z,9.95
2018-07-21T23:48:32.286Z,10.05
2018-07-21T23:51:00.299Z,10.15
2018-07-21T23:53:28.379Z,9.63
2018-07-21T23:55:56.600Z,10.90
2018-07-21T23:58:24.628Z,9.08
